createdAt,value
2022-08-20T00:01:32.877Z,1.60
2022-08-20T00:04:03.302Z,1.80
2022-08-20T00:06:35.098Z,1.77
2022-08-20T00:09:05.906Z,1.92
2022-08-20T00:11:36.502Z,1.55
2022-08-20T00:14:08.692Z,1.73
2022-08-20T00:16:40.322Z,2.03
2022-08-20T00:19:11.346Z,2.83
2022-08-20T00:24:12.447Z,2.30
2022-08-20T00:26:51.829Z,1.90
2022-08-20T00:29:23.567Z,1.90
2022-08-20T00:31:53.726Z,2.08
2022-08-20T00:36:53.658Z,1.80
2022-08-20T00:39:23.690Z,1.40
2022-08-20T00:41:54.179Z,2.60
2022-08-20T00:44:25.818Z,2.50
2022-08-20T00:46:56.467Z,2.50
2022-08-20T00:49:30.219Z,2.08
2022-08-20T00:52:08.622Z,1.73
2022-08-20T00:55:07.177Z,1.88
2022-08-20T00:57:44.577Z,1.83
2022-08-20T01:00:38.767Z,1.75
2022-08-20T01:03:12.449Z,1.58
2022-08-20T01:05:49.086Z,1.60
2022-08-20T01:08:22.027Z,1.50
2022-08-20T01:10:54.950Z,1.70
2022-08-20T01:13:26.829Z,1.67
2022-08-20T01:15:58.571Z,1.73
2022-08-20T01:18:30.120Z,1.70
2022-08-20T01:21:04.401Z,1.77
2022-08-20T01:23:44.317Z,1.95
2022-08-20T01:26:28.148Z,1.80
2022-08-20T01:29:03.095Z,1.55
2022-08-20T01:31:37.489Z,1.95
2022-08-20T01:34:12.181Z,1.70
2022-08-20T01:36:54.080Z,2.03
2022-08-20T01:39:27.860Z,1.83
2022-08-20T01:42:26.192Z,2.03
2022-08-20T01:44:56.630Z,1.90
2022-08-20T01:47:38.722Z,1.60
2022-08-20T01:50:19.341Z,1.70
2022-08-20T01:52:59.236Z,1.95
2022-08-20T01:55:29.641Z,1.55
2022-08-20T01:58:00.459Z,1.80
2022-08-20T02:00:31.195Z,1.58
2022-08-20T02:03:01.211Z,2.00
2022-08-20T02:05:33.692Z,2.10
2022-08-20T02:08:04.486Z,1.90
2022-08-20T02:10:35.189Z,2.40
2022-08-20T02:13:06.882Z,2.80
2022-08-20T02:15:39.894Z,2.83
2022-08-20T02:18:17.238Z,2.60
2022-08-20T02:20:48.574Z,2.83
2022-08-20T02:23:19.886Z,2.95
2022-08-20T02:25:50.636Z,2.25
2022-08-20T02:28:21.833Z,2.40
2022-08-20T02:30:56.443Z,2.05
2022-08-20T02:33:26.537Z,1.85
2022-08-20T02:35:58.070Z,2.00
2022-08-20T02:38:28.318Z,1.55
2022-08-20T02:40:58.699Z,1.95
2022-08-20T02:43:28.880Z,1.80
2022-08-20T02:46:00.749Z,1.90
2022-08-20T02:48:31.593Z,1.60
2022-08-20T02:51:06.175Z,1.65
2022-08-20T02:53:39.905Z,1.35
2022-08-20T02:56:12.096Z,1.63
2022-08-20T02:58:43.377Z,1.50
2022-08-20T03:01:18.210Z,1.77
2022-08-20T03:03:48.338Z,1.70
2022-08-20T03:08:48.681Z,2.53
2022-08-20T03:11:20.206Z,2.17
2022-08-20T03:13:50.332Z,1.70
2022-08-20T03:16:20.850Z,1.90
2022-08-20T03:18:52.053Z,1.95
2022-08-20T03:21:22.990Z,2.03
2022-08-20T03:23:53.066Z,2.05
2022-08-20T03:26:23.558Z,1.70
2022-08-20T03:28:53.679Z,2.10
2022-08-20T03:31:24.358Z,2.05
2022-08-20T03:33:54.508Z,1.90
2022-08-20T03:36:28.432Z,2.65
2022-08-20T03:39:03.040Z,2.95
2022-08-20T03:41:33.422Z,3.28
2022-08-20T03:44:04.114Z,2.70
2022-08-20T03:46:35.154Z,2.42
2022-08-20T03:49:07.085Z,2.35
2022-08-20T03:51:57.109Z,2.20
2022-08-20T03:54:31.919Z,1.95
2022-08-20T03:57:12.606Z,1.92
2022-08-20T03:59:45.664Z,1.88
2022-08-20T04:02:20.058Z,1.88
2022-08-20T04:07:28.569Z,2.00
2022-08-20T04:09:59.253Z,2.00
2022-08-20T04:12:29.302Z,1.98
2022-08-20T04:14:59.828Z,2.00
2022-08-20T04:17:33.822Z,1.80
2022-08-20T04:20:07.426Z,1.98
2022-08-20T04:22:39.582Z,1.52
2022-08-20T04:25:10.602Z,1.65
2022-08-20T04:27:47.347Z,1.50
2022-08-20T04:30:20.873Z,1.60
2022-08-20T04:32:51.078Z,1.95
2022-08-20T04:35:22.222Z,1.35
2022-08-20T04:38:00.530Z,1.70
2022-08-20T04:40:51.958Z,3.00
2022-08-20T04:43:29.038Z,2.95
2022-08-20T04:46:02.408Z,3.33
2022-08-20T04:48:32.885Z,4.70
2022-08-20T04:51:04.330Z,4.95
2022-08-20T04:53:34.981Z,5.28
2022-08-20T04:56:05.658Z,5.75
2022-08-20T04:58:39.126Z,5.82
2022-08-20T05:01:12.089Z,5.72
2022-08-20T05:03:43.546Z,4.88
2022-08-20T05:06:14.143Z,5.70
2022-08-20T05:08:44.978Z,5.90
2022-08-20T05:11:34.110Z,5.10
2022-08-20T05:14:10.311Z,3.60
2022-08-20T05:16:42.038Z,3.13
2022-08-20T05:19:14.740Z,2.20
2022-08-20T05:21:45.551Z,2.15
2022-08-20T05:24:15.792Z,1.70
2022-08-20T05:26:46.339Z,1.95
2022-08-20T05:29:16.920Z,1.80
2022-08-20T05:31:47.471Z,2.03
2022-08-20T05:34:17.379Z,2.60
2022-08-20T05:36:51.182Z,2.70
2022-08-20T05:39:23.574Z,3.22
2022-08-20T05:41:54.188Z,4.05
2022-08-20T05:44:25.134Z,5.05
2022-08-20T05:46:55.609Z,5.05
2022-08-20T05:49:25.812Z,4.60
2022-08-20T05:54:25.774Z,4.50
2022-08-20T05:56:56.566Z,5.60
2022-08-20T05:59:28.676Z,5.55
2022-08-20T06:01:58.798Z,4.90
2022-08-20T06:04:33.258Z,4.75
2022-08-20T06:07:08.139Z,5.25
2022-08-20T06:09:40.560Z,5.00
2022-08-20T06:12:12.374Z,4.95
2022-08-20T06:14:42.249Z,5.68
2022-08-20T06:17:16.140Z,5.15
2022-08-20T06:19:48.679Z,4.47
2022-08-20T06:22:27.151Z,5.05
2022-08-20T06:24:57.453Z,4.88
2022-08-20T06:27:27.502Z,4.63
2022-08-20T06:29:58.042Z,4.50
2022-08-20T06:32:32.393Z,4.20
2022-08-20T06:35:05.531Z,4.32
2022-08-20T06:37:39.493Z,3.65
2022-08-20T06:40:16.530Z,4.60
2022-08-20T06:42:48.712Z,4.95
2022-08-20T06:45:26.739Z,5.88
2022-08-20T06:47:59.270Z,5.53
2022-08-20T06:50:47.284Z,4.93
2022-08-20T06:53:24.235Z,4.95
2022-08-20T06:55:57.102Z,5.00
2022-08-20T06:58:37.114Z,5.03
2022-08-20T07:01:11.096Z,3.90
2022-08-20T07:03:54.420Z,4.30
2022-08-20T07:06:27.084Z,3.88
2022-08-20T07:08:57.461Z,4.40
2022-08-20T07:11:28.917Z,2.97
2022-08-20T07:13:59.772Z,3.10
2022-08-20T07:16:30.378Z,3.50
2022-08-20T07:19:00.260Z,3.30
2022-08-20T07:21:31.519Z,3.10
2022-08-20T07:24:01.818Z,2.80
2022-08-20T07:26:32.745Z,2.85
2022-08-20T07:29:02.872Z,3.03
2022-08-20T07:31:51.581Z,2.80
2022-08-20T07:34:21.653Z,3.15
2022-08-20T07:36:57.698Z,3.25
2022-08-20T07:39:28.501Z,3.67
2022-08-20T07:42:08.307Z,3.35
2022-08-20T07:47:10.674Z,3.45
2022-08-20T07:49:41.799Z,3.72
2022-08-20T07:52:14.299Z,3.42
2022-08-20T07:54:45.541Z,3.45
2022-08-20T07:57:18.344Z,3.38
2022-08-20T07:59:49.891Z,3.08
2022-08-20T08:02:23.968Z,3.33
2022-08-20T08:04:54.527Z,3.10
2022-08-20T08:07:27.491Z,2.95
2022-08-20T08:09:58.787Z,4.38
2022-08-20T08:12:38.199Z,3.80
2022-08-20T08:15:12.502Z,3.10
2022-08-20T08:17:45.531Z,3.22
2022-08-20T08:20:16.198Z,4.50
2022-08-20T08:22:46.775Z,4.95
2022-08-20T08:25:18.354Z,4.20
2022-08-20T08:27:49.966Z,2.88
2022-08-20T08:33:07.942Z,2.88
2022-08-20T08:35:41.453Z,2.80
2022-08-20T08:38:14.792Z,2.92
2022-08-20T08:40:45.462Z,2.38
2022-08-20T08:43:21.890Z,2.40
2022-08-20T08:46:03.367Z,2.38
2022-08-20T08:48:38.343Z,2.13
2022-08-20T08:51:13.015Z,1.85
2022-08-20T08:53:54.648Z,1.90
2022-08-20T08:56:29.051Z,1.90
2022-08-20T08:59:11.591Z,2.00
2022-08-20T09:01:53.997Z,2.10
2022-08-20T09:04:34.706Z,2.30
2022-08-20T09:07:08.586Z,2.30
2022-08-20T09:09:42.579Z,2.38
2022-08-20T09:12:16.261Z,1.98
2022-08-20T09:14:49.125Z,1.90
2022-08-20T09:17:23.086Z,1.90
2022-08-20T09:19:53.496Z,2.10
2022-08-20T09:22:27.116Z,2.03
2022-08-20T09:24:58.204Z,2.38
2022-08-20T09:27:28.323Z,2.03
2022-08-20T09:29:58.740Z,1.80
2022-08-20T09:32:28.745Z,2.00
2022-08-20T09:35:00.339Z,1.90
2022-08-20T09:37:37.300Z,1.85
2022-08-20T09:42:41.717Z,1.88
2022-08-20T09:45:13.553Z,2.60
2022-08-20T09:48:10.309Z,2.90
2022-08-20T09:50:36.902Z,2.97
2022-08-20T09:53:07.733Z,1.88
2022-08-20T09:55:41.678Z,2.08
2022-08-20T09:58:39.449Z,2.20
2022-08-20T10:01:16.247Z,2.10
2022-08-20T10:03:49.882Z,2.13
2022-08-20T10:06:21.584Z,1.98
2022-08-20T10:08:51.745Z,1.50
2022-08-20T10:11:22.279Z,1.98
2022-08-20T10:13:52.334Z,1.75
2022-08-20T10:16:22.148Z,2.00
2022-08-20T10:18:52.576Z,2.00
2022-08-20T10:21:22.711Z,1.83
2022-08-20T10:23:53.162Z,2.00
2022-08-20T10:26:23.226Z,2.10
2022-08-20T10:28:56.079Z,2.38
2022-08-20T10:31:26.124Z,2.67
2022-08-20T10:33:57.823Z,2.60
2022-08-20T10:36:27.846Z,2.25
2022-08-20T10:38:58.337Z,2.38
2022-08-20T10:41:29.426Z,2.80
2022-08-20T10:43:59.814Z,1.90
2022-08-20T10:46:29.822Z,2.13
2022-08-20T10:49:00.239Z,2.00
2022-08-20T10:51:32.592Z,2.47
2022-08-20T10:54:06.307Z,2.13
2022-08-20T10:56:42.310Z,1.77
2022-08-20T10:59:12.176Z,1.95
2022-08-20T11:01:45.694Z,1.90
2022-08-20T11:04:15.715Z,1.95
2022-08-20T11:06:46.087Z,1.95
2022-08-20T11:09:18.924Z,1.90
2022-08-20T11:11:49.329Z,1.90
2022-08-20T11:14:19.533Z,1.77
2022-08-20T11:16:49.903Z,2.05
2022-08-20T11:19:19.899Z,1.70
2022-08-20T11:21:50.275Z,1.83
2022-08-20T11:24:20.563Z,1.80
2022-08-20T11:26:51.566Z,2.00
2022-08-20T11:29:23.844Z,2.30
2022-08-20T11:31:54.246Z,2.40
2022-08-20T11:34:24.322Z,2.38
2022-08-20T11:36:58.062Z,2.70
2022-08-20T11:39:28.880Z,2.33
2022-08-20T11:41:59.280Z,2.80
2022-08-20T11:44:29.305Z,2.97
2022-08-20T11:47:04.732Z,3.47
2022-08-20T11:49:37.158Z,2.90
2022-08-20T11:52:07.889Z,3.20
2022-08-20T11:54:41.642Z,3.30
2022-08-20T11:57:12.134Z,3.05
2022-08-20T11:59:42.129Z,3.08
2022-08-20T12:02:12.727Z,3.28
2022-08-20T12:04:42.755Z,2.95
2022-08-20T12:07:15.347Z,3.03
2022-08-20T12:09:51.017Z,3.15
2022-08-20T12:12:25.181Z,3.90
2022-08-20T12:14:59.939Z,3.85
2022-08-20T12:17:31.934Z,3.50
2022-08-20T12:20:11.175Z,3.60
2022-08-20T12:22:42.485Z,3.42
2022-08-20T12:25:13.352Z,3.72
2022-08-20T12:27:44.215Z,3.67
2022-08-20T12:30:18.640Z,3.10
2022-08-20T12:32:49.500Z,4.28
2022-08-20T12:35:20.750Z,3.47
2022-08-20T12:37:51.695Z,3.88
2022-08-20T12:40:31.859Z,3.72
2022-08-20T12:43:04.142Z,4.38
2022-08-20T12:45:37.132Z,3.60
2022-08-20T12:48:11.934Z,4.18
2022-08-20T12:50:45.055Z,4.18
2022-08-20T12:53:15.636Z,3.38
2022-08-20T12:55:45.876Z,4.05
2022-08-20T12:58:16.421Z,3.50
2022-08-20T13:00:50.615Z,3.60
2022-08-20T13:03:22.075Z,3.30
2022-08-20T13:05:52.249Z,3.60
2022-08-20T13:08:22.763Z,3.80
2022-08-20T13:10:52.859Z,3.30
2022-08-20T13:13:23.224Z,2.72
2022-08-20T13:18:22.575Z,2.70
2022-08-20T13:20:53.003Z,2.53
2022-08-20T13:23:23.056Z,2.47
2022-08-20T13:25:53.679Z,2.67
2022-08-20T13:28:23.703Z,1.90
2022-08-20T13:30:54.062Z,2.00
2022-08-20T13:33:24.107Z,2.22
2022-08-20T13:35:54.487Z,2.30
2022-08-20T13:38:25.666Z,2.10
2022-08-20T13:40:56.140Z,2.20
2022-08-20T13:43:26.167Z,2.35
2022-08-20T13:45:56.655Z,2.97
2022-08-20T13:48:26.722Z,2.70
2022-08-20T13:50:57.154Z,2.65
2022-08-20T13:53:28.203Z,2.55
2022-08-20T13:55:58.614Z,2.40
2022-08-20T13:58:28.646Z,2.90
2022-08-20T14:00:59.057Z,2.50
2022-08-20T14:03:29.115Z,2.50
2022-08-20T14:05:59.486Z,2.85
2022-08-20T14:08:29.759Z,3.10
2022-08-20T14:11:00.751Z,2.70
2022-08-20T14:13:30.865Z,2.92
2022-08-20T14:16:01.799Z,2.20
2022-08-20T14:18:32.034Z,2.47
2022-08-20T14:21:02.471Z,2.30
2022-08-20T14:23:32.498Z,1.67
2022-08-20T14:26:09.720Z,1.23
2022-08-20T14:28:39.687Z,1.50
2022-08-20T14:31:10.108Z,1.25
2022-08-20T14:33:44.449Z,1.90
2022-08-20T14:36:18.305Z,1.20
2022-08-20T14:38:48.390Z,1.33
2022-08-20T14:41:18.215Z,1.73
2022-08-20T14:43:48.687Z,1.40
2022-08-20T14:46:18.648Z,1.60
2022-08-20T14:48:51.755Z,1.80
2022-08-20T14:51:23.432Z,1.30
2022-08-20T14:53:53.892Z,1.20
2022-08-20T14:56:24.591Z,1.50
2022-08-20T14:58:54.739Z,1.25
2022-08-20T15:01:25.344Z,1.27
2022-08-20T15:03:55.531Z,1.05
2022-08-20T15:06:26.029Z,1.33
2022-08-20T15:08:56.194Z,0.95
2022-08-20T15:11:28.081Z,1.30
2022-08-20T15:14:02.499Z,1.25
2022-08-20T15:16:33.875Z,1.15
2022-08-20T15:19:07.266Z,1.08
2022-08-20T15:21:45.281Z,1.33
2022-08-20T15:24:19.306Z,1.60
2022-08-20T15:26:50.126Z,1.33
2022-08-20T15:29:23.196Z,1.48
2022-08-20T15:31:54.070Z,1.40
2022-08-20T15:34:24.314Z,1.25
2022-08-20T15:36:54.809Z,1.17
2022-08-20T15:39:25.172Z,1.30
2022-08-20T15:41:55.678Z,1.15
2022-08-20T15:44:25.712Z,1.45
2022-08-20T15:46:56.214Z,1.40
2022-08-20T15:49:26.479Z,1.67
2022-08-20T15:51:57.101Z,1.45
2022-08-20T15:54:28.813Z,1.23
2022-08-20T15:57:08.364Z,1.00
2022-08-20T16:00:08.500Z,1.08
2022-08-20T16:03:03.049Z,1.17
2022-08-20T16:06:13.717Z,1.20
2022-08-20T16:09:08.975Z,1.17
2022-08-20T16:11:46.838Z,1.20
2022-08-20T16:14:26.974Z,1.45
2022-08-20T16:17:06.882Z,1.38
2022-08-20T16:19:59.426Z,1.27
2022-08-20T16:22:32.541Z,1.00
2022-08-20T16:25:03.828Z,1.00
2022-08-20T16:27:36.644Z,0.98
2022-08-20T16:30:09.855Z,0.90
2022-08-20T16:33:01.424Z,1.35
2022-08-20T16:36:04.778Z,1.00
2022-08-20T16:38:43.619Z,1.40
2022-08-20T16:41:20.251Z,1.10
2022-08-20T16:44:08.646Z,1.20
2022-08-20T16:46:47.745Z,1.02
2022-08-20T16:49:18.027Z,1.13
2022-08-20T16:51:55.823Z,1.25
2022-08-20T16:54:29.487Z,0.85
2022-08-20T16:57:06.947Z,1.17
2022-08-20T17:00:16.234Z,1.40
2022-08-20T17:03:10.879Z,0.90
2022-08-20T17:05:48.860Z,1.00
2022-08-20T17:08:25.982Z,1.05
2022-08-20T17:11:03.418Z,1.20
2022-08-20T17:13:38.150Z,1.10
2022-08-20T17:16:10.402Z,1.20
2022-08-20T17:18:44.480Z,1.25
2022-08-20T17:21:14.480Z,1.23
2022-08-20T17:23:56.238Z,1.13
2022-08-20T17:26:42.453Z,0.95
2022-08-20T17:29:22.530Z,0.98
2022-08-20T17:31:59.069Z,1.20
2022-08-20T17:34:44.062Z,1.10
2022-08-20T17:37:34.418Z,1.48
2022-08-20T17:40:20.601Z,1.33
2022-08-20T17:42:59.446Z,1.10
2022-08-20T17:45:32.904Z,1.35
2022-08-20T17:48:04.948Z,1.50
2022-08-20T17:50:39.976Z,1.83
2022-08-20T17:53:30.055Z,1.35
2022-08-20T17:56:04.325Z,1.52
2022-08-20T17:58:54.853Z,1.00
2022-08-20T18:01:26.925Z,1.60
2022-08-20T18:03:57.390Z,1.25
2022-08-20T18:06:49.426Z,1.05
2022-08-20T18:09:34.187Z,1.30
2022-08-20T18:12:36.500Z,1.30
2022-08-20T18:15:27.326Z,1.85
2022-08-20T18:18:12.401Z,1.25
2022-08-20T18:21:15.141Z,1.33
2022-08-20T18:23:58.236Z,1.00
2022-08-20T18:26:50.504Z,1.30
2022-08-20T18:29:35.759Z,1.33
2022-08-20T18:32:39.024Z,1.38
2022-08-20T18:35:19.896Z,1.30
2022-08-20T18:37:51.211Z,1.15
2022-08-20T18:40:34.458Z,1.30
2022-08-20T18:43:17.188Z,1.40
2022-08-20T18:45:47.176Z,1.45
2022-08-20T18:48:23.844Z,1.40
2022-08-20T18:50:58.020Z,1.80
2022-08-20T18:53:34.453Z,1.55
2022-08-20T18:56:12.851Z,1.33
2022-08-20T18:59:14.969Z,1.20
2022-08-20T19:01:48.227Z,1.00
2022-08-20T19:04:38.960Z,1.50
2022-08-20T19:07:12.873Z,1.55
2022-08-20T19:10:08.182Z,1.30
2022-08-20T19:13:16.321Z,1.50
2022-08-20T19:15:52.203Z,1.58
2022-08-20T19:18:29.356Z,1.25
2022-08-20T19:21:03.481Z,1.70
2022-08-20T19:23:40.018Z,1.42
2022-08-20T19:26:25.247Z,1.65
2022-08-20T19:29:18.280Z,1.52
2022-08-20T19:31:58.178Z,1.70
2022-08-20T19:34:28.734Z,1.63
2022-08-20T19:37:34.335Z,1.30
2022-08-20T19:40:02.166Z,1.50
2022-08-20T19:42:41.907Z,1.50
2022-08-20T19:45:24.132Z,1.70
2022-08-20T19:48:15.399Z,1.10
2022-08-20T19:50:55.997Z,1.77
2022-08-20T19:53:33.867Z,1.58
2022-08-20T19:56:06.038Z,1.75
2022-08-20T19:58:36.944Z,1.55
2022-08-20T20:01:16.781Z,1.65
2022-08-20T20:04:00.170Z,2.08
2022-08-20T20:06:43.878Z,1.70
2022-08-20T20:09:23.298Z,1.25
2022-08-20T20:11:59.058Z,1.40
2022-08-20T20:14:35.414Z,1.80
2022-08-20T20:17:14.995Z,1.75
2022-08-20T20:19:52.554Z,1.70
2022-08-20T20:22:31.376Z,2.33
2022-08-20T20:25:26.361Z,1.70
2022-08-20T20:27:59.919Z,1.67
2022-08-20T20:30:35.522Z,1.85
2022-08-20T20:33:16.824Z,1.90
2022-08-20T20:35:48.512Z,2.10
2022-08-20T20:38:39.078Z,1.90
2022-08-20T20:41:21.928Z,2.75
2022-08-20T20:44:02.437Z,2.60
2022-08-20T20:46:36.094Z,2.40
2022-08-20T20:49:11.654Z,2.15
2022-08-20T20:51:55.349Z,2.38
2022-08-20T20:54:42.330Z,2.05
2022-08-20T20:57:36.473Z,2.30
2022-08-20T21:00:15.047Z,3.95
2022-08-20T21:02:47.335Z,2.80
2022-08-20T21:05:19.465Z,3.28
2022-08-20T21:08:02.205Z,3.65
2022-08-20T21:10:35.983Z,3.58
2022-08-20T21:13:09.192Z,2.78
2022-08-20T21:15:40.631Z,2.60
2022-08-20T21:18:11.436Z,2.50
2022-08-20T21:20:41.480Z,2.70
2022-08-20T21:23:11.945Z,2.25
2022-08-20T21:25:42.280Z,2.10
2022-08-20T21:28:12.713Z,2.75
2022-08-20T21:33:12.676Z,1.88
2022-08-20T21:35:43.519Z,2.10
2022-08-20T21:38:14.029Z,1.90
2022-08-20T21:40:43.894Z,1.77
2022-08-20T21:43:16.723Z,1.75
2022-08-20T21:45:49.712Z,1.73
2022-08-20T21:48:20.149Z,1.90
2022-08-20T21:50:50.230Z,1.70
2022-08-20T21:53:20.760Z,1.83
2022-08-20T21:58:21.815Z,1.77
2022-08-20T22:00:59.543Z,1.50
2022-08-20T22:03:33.897Z,1.67
2022-08-20T22:06:08.073Z,1.80
2022-08-20T22:08:41.283Z,1.70
2022-08-20T22:11:12.679Z,2.10
2022-08-20T22:13:43.608Z,1.88
2022-08-20T22:16:16.906Z,1.92
2022-08-20T22:18:49.228Z,1.88
2022-08-20T22:21:28.194Z,1.83
2022-08-20T22:24:08.479Z,1.90
2022-08-20T22:26:41.399Z,1.75
2022-08-20T22:29:13.413Z,1.42
2022-08-20T22:31:44.766Z,1.20
2022-08-20T22:34:18.623Z,1.63
2022-08-20T22:36:54.402Z,1.60
2022-08-20T22:39:24.992Z,1.80
2022-08-20T22:41:54.836Z,1.60
2022-08-20T22:44:25.623Z,1.60
2022-08-20T22:49:33.745Z,2.17
2022-08-20T22:52:04.082Z,1.63
2022-08-20T22:54:36.737Z,1.77
2022-08-20T22:57:06.943Z,2.67
2022-08-20T22:59:41.404Z,2.78
2022-08-20T23:02:23.495Z,3.42
2022-08-20T23:04:53.989Z,3.45
2022-08-20T23:07:23.941Z,4.22
2022-08-20T23:09:55.176Z,3.55
2022-08-20T23:12:25.866Z,2.65
2022-08-20T23:14:56.295Z,3.28
2022-08-20T23:17:26.436Z,3.72
2022-08-20T23:19:56.859Z,2.60
2022-08-20T23:22:26.966Z,2.67
2022-08-20T23:25:00.422Z,2.78
2022-08-20T23:27:30.883Z,2.45
2022-08-20T23:30:01.601Z,2.60
2022-08-20T23:32:31.720Z,2.65
2022-08-20T23:35:02.178Z,2.30
2022-08-20T23:37:33.286Z,2.10
2022-08-20T23:40:04.023Z,2.00
2022-08-20T23:45:03.567Z,2.10
2022-08-20T23:47:34.376Z,2.20
2022-08-20T23:50:06.441Z,2.00
2022-08-20T23:52:37.063Z,2.28
2022-08-20T23:55:07.711Z,2.60
2022-08-20T23:57:38.836Z,2.40
